Hovedside
METAR-TAF:

METAR-TAF

Lufthavner :

Astoria, Oregon, USA

breddegrad: 46-09-25N, lengdegrad: 123-52-57W, høyde over havet: 3 m

Gjeldene værobservasjon

Denne rapporten ble laget for 27 minutter siden, klokken 09:55 UTC
Vind 3 kt fra Sørøst
Temperatur 1°C
Luftfuktighet 100%
Trykk 1019 hPa
Sikt: 16.1 km
Skyfri himmel

METAR: KAST 190955Z AUTO 13003KT 10SM CLR 01/01 A3010 RMK AO2 SLP191 T00110006

Tid: 02:22 (10:22 UTC)

Varsel

Denne rapporten ble laget for 4 timer og 57 minutter siden, klokken 05:25 UTC
Varsel gyldig fra 19. klokken 06 UTC til 20. klokken 06 UTC
Vind 4 kt fra Øst-sørøst
Sikt: 10 km
Skyfri himmel

TAF: KAST 190525Z 1906/2006 12004KT P6SM SKC

Værobservasjoner og værvarsel for over 4000 flyplasser (METAR- og TAF-rapporter).

Tilgjengelige stasjoner er representert av de røde og gule prikkene på kartet.

Hold musepekeren over prikken for å se navnet på stasjonen.

Klikk så for å se værobservasjoner og -varsler.

For å forandre kartet kan du klikke på den grønne knappen med svart kryss for å zoome inn, på den grønne knappen med strek for å zoome ut, eller på de grønne pilene for å se tilstøtende kart.


METAR-TAF: